createdAt,value
2017-07-15T00:00:37.256Z,22.1
2017-07-15T00:01:45.901Z,22.09
2017-07-15T00:02:54.553Z,22.05
2017-07-15T00:04:03.530Z,22.1
2017-07-15T00:05:12.184Z,22.05
2017-07-15T00:06:20.822Z,22.09
2017-07-15T00:07:29.790Z,22.1
2017-07-15T00:08:39.087Z,22.02
2017-07-15T00:09:48.059Z,22.07
2017-07-15T00:10:57.017Z,22
2017-07-15T00:12:06.926Z,21.96
2017-07-15T00:13:16.186Z,21.96
2017-07-15T00:14:25.475Z,21.94
2017-07-15T00:15:34.130Z,22
2017-07-15T00:16:42.775Z,21.98
2017-07-15T00:17:52.371Z,21.99
2017-07-15T00:19:01.332Z,21.96
2017-07-15T00:20:09.975Z,22.06
2017-07-15T00:21:19.244Z,21.98
2017-07-15T00:22:27.878Z,21.98
2017-07-15T00:23:36.518Z,21.98
2017-07-15T00:24:45.486Z,22
2017-07-15T00:25:54.454Z,21.99
2017-07-15T00:27:03.730Z,21.96
2017-07-15T00:28:12.999Z,22
2017-07-15T00:29:22.121Z,22.02
2017-07-15T00:30:31.414Z,22
2017-07-15T00:31:40.711Z,21.92
2017-07-15T00:32:49.749Z,21.96
2017-07-15T00:33:58.705Z,21.92
2017-07-15T00:35:07.364Z,21.88
2017-07-15T00:36:16.331Z,21.91
2017-07-15T00:37:25.600Z,21.88
2017-07-15T00:38:34.262Z,21.88
2017-07-15T00:39:43.233Z,22
2017-07-15T00:40:52.199Z,21.88
2017-07-15T00:42:01.169Z,21.98
2017-07-15T00:43:10.152Z,21.99
2017-07-15T00:44:19.427Z,21.92
2017-07-15T00:45:28.378Z,21.96
2017-07-15T00:46:37.345Z,22
2017-07-15T00:47:46.630Z,21.92
2017-07-15T00:48:55.586Z,21.98
2017-07-15T00:50:04.861Z,21.92
2017-07-15T00:51:14.130Z,21.96
2017-07-15T00:52:23.092Z,21.86
2017-07-15T00:53:32.361Z,22
2017-07-15T00:54:41.949Z,21.98
2017-07-15T00:55:51.223Z,21.88
2017-07-15T00:57:00.486Z,21.96
2017-07-15T00:58:09.754Z,22
2017-07-15T00:59:18.404Z,21.99
2017-07-15T01:00:27.694Z,21.92
2017-07-15T01:01:36.344Z,21.98
2017-07-15T01:02:45.312Z,21.99
2017-07-15T01:03:54.262Z,22
2017-07-15T01:05:03.213Z,21.99
2017-07-15T01:06:11.852Z,21.94
2017-07-15T01:07:20.810Z,22
2017-07-15T01:08:30.076Z,21.92
2017-07-15T01:09:39.654Z,21.99
2017-07-15T01:10:48.303Z,22.02
2017-07-15T01:11:57.578Z,21.94
2017-07-15T01:13:07.493Z,22.03
2017-07-15T01:14:16.450Z,22
2017-07-15T01:15:25.460Z,22.02
2017-07-15T01:16:34.417Z,21.94
2017-07-15T01:17:43.685Z,22.06
2017-07-15T01:18:52.660Z,22
2017-07-15T01:20:01.641Z,21.92
2017-07-15T01:21:10.912Z,22.03
2017-07-15T01:22:20.255Z,22.02
2017-07-15T01:23:28.889Z,22
2017-07-15T01:24:37.852Z,21.94
2017-07-15T01:25:46.815Z,21.92
2017-07-15T01:26:55.455Z,21.96
2017-07-15T01:28:04.432Z,21.96
2017-07-15T01:29:13.705Z,21.99
2017-07-15T01:30:22.674Z,21.88
2017-07-15T01:31:31.636Z,21.9
2017-07-15T01:32:40.593Z,21.96
2017-07-15T01:33:49.300Z,21.92
2017-07-15T01:34:57.947Z,21.92
2017-07-15T01:36:06.910Z,21.9
2017-07-15T01:37:15.862Z,21.86
2017-07-15T01:38:25.137Z,21.84
2017-07-15T01:39:34.099Z,21.77
2017-07-15T01:40:43.365Z,21.82
2017-07-15T01:41:52.954Z,21.86
2017-07-15T01:43:02.234Z,21.77
2017-07-15T01:44:11.188Z,21.8
2017-07-15T01:45:19.823Z,21.74
2017-07-15T01:46:28.781Z,21.74
2017-07-15T01:47:37.738Z,21.71
2017-07-15T01:48:46.380Z,21.68
2017-07-15T01:49:55.331Z,21.72
2017-07-15T01:51:04.914Z,21.77
2017-07-15T01:52:13.890Z,21.68
2017-07-15T01:53:23.157Z,21.77
2017-07-15T01:54:32.108Z,21.79
2017-07-15T01:55:40.754Z,21.71
2017-07-15T01:56:50.351Z,21.74
2017-07-15T01:57:59.306Z,21.68
2017-07-15T01:59:08.253Z,21.71
2017-07-15T02:00:16.896Z,21.72
2017-07-15T02:01:26.167Z,21.68
2017-07-15T02:02:35.423Z,21.72
2017-07-15T02:03:45.023Z,21.67
2017-07-15T02:04:53.974Z,21.65
2017-07-15T02:06:02.921Z,21.68
2017-07-15T02:07:12.245Z,21.69
2017-07-15T02:08:21.537Z,21.65
2017-07-15T02:09:30.498Z,21.64
2017-07-15T02:10:39.472Z,21.61
2017-07-15T02:11:48.418Z,21.67
2017-07-15T02:12:58.004Z,21.68
2017-07-15T02:14:07.271Z,21.71
2017-07-15T02:15:16.230Z,21.68
2017-07-15T02:16:25.491Z,21.72
2017-07-15T02:17:34.132Z,21.65
2017-07-15T02:18:43.088Z,21.64
2017-07-15T02:19:52.382Z,21.68
2017-07-15T02:21:01.021Z,21.75
2017-07-15T02:22:09.661Z,21.69
2017-07-15T02:23:18.924Z,21.67
2017-07-15T02:24:27.574Z,21.68
2017-07-15T02:25:36.859Z,21.64
2017-07-15T02:26:45.830Z,21.67
2017-07-15T02:27:54.477Z,21.62
2017-07-15T02:29:03.111Z,21.61
2017-07-15T02:30:12.066Z,21.56
2017-07-15T02:31:20.711Z,21.59
2017-07-15T02:32:29.666Z,21.54
2017-07-15T02:33:38.935Z,21.58
2017-07-15T02:34:47.563Z,21.5
2017-07-15T02:35:56.535Z,21.49
2017-07-15T02:37:05.227Z,21.59
2017-07-15T02:38:14.178Z,21.54
2017-07-15T02:39:23.438Z,21.44
2017-07-15T02:40:32.706Z,21.44
2017-07-15T02:41:41.978Z,21.52
2017-07-15T02:42:50.616Z,21.52
2017-07-15T02:43:59.924Z,21.5
2017-07-15T02:45:08.840Z,21.47
2017-07-15T02:46:18.106Z,21.44
2017-07-15T02:47:27.377Z,21.38
2017-07-15T02:48:36.663Z,21.47
2017-07-15T02:49:45.932Z,21.42
2017-07-15T02:50:54.899Z,21.4
2017-07-15T02:52:03.857Z,21.46
2017-07-15T02:53:12.858Z,21.29
2017-07-15T02:54:22.130Z,21.43
2017-07-15T02:55:31.399Z,21.43
2017-07-15T02:56:40.044Z,21.35
2017-07-15T02:57:49.005Z,21.37
2017-07-15T02:58:57.967Z,21.37
2017-07-15T03:00:06.911Z,21.25
2017-07-15T03:01:16.186Z,21.28
2017-07-15T03:02:24.824Z,21.25
2017-07-15T03:03:34.096Z,21.28
2017-07-15T03:04:43.059Z,21.22
2017-07-15T03:05:52.637Z,21.32
2017-07-15T03:07:01.603Z,21.31
2017-07-15T03:08:10.874Z,21.25
2017-07-15T03:09:19.823Z,21.25
2017-07-15T03:10:29.094Z,21.27
2017-07-15T03:11:38.367Z,21.25
2017-07-15T03:12:47.009Z,21.25
2017-07-15T03:13:55.645Z,21.24
2017-07-15T03:15:05.883Z,21.21
2017-07-15T03:16:14.833Z,21.27
2017-07-15T03:17:23.792Z,21.24
2017-07-15T03:18:33.069Z,21.24
2017-07-15T03:19:42.340Z,21.24
2017-07-15T03:20:51.312Z,21.24
2017-07-15T03:22:00.270Z,21.25
2017-07-15T03:23:08.912Z,21.25
2017-07-15T03:24:18.493Z,21.24
2017-07-15T03:25:27.769Z,21.25
2017-07-15T03:26:36.779Z,21.34
2017-07-15T03:27:46.373Z,21.32
2017-07-15T03:28:55.640Z,21.29
2017-07-15T03:30:04.597Z,21.31
2017-07-15T03:31:13.559Z,21.34
2017-07-15T03:32:23.174Z,21.28
2017-07-15T03:33:32.455Z,21.34
2017-07-15T03:34:41.419Z,21.4
2017-07-15T03:35:50.059Z,21.37
2017-07-15T03:36:59.014Z,21.44
2017-07-15T03:38:07.970Z,21.31
2017-07-15T03:39:16.623Z,21.37
2017-07-15T03:40:26.201Z,21.4
2017-07-15T03:41:34.837Z,21.46
2017-07-15T03:42:43.797Z,21.43
2017-07-15T03:43:52.740Z,21.37
2017-07-15T03:45:01.397Z,21.37
2017-07-15T03:46:10.347Z,21.35
2017-07-15T03:47:19.305Z,21.37
2017-07-15T03:48:28.256Z,21.4
2017-07-15T03:49:37.547Z,21.34
2017-07-15T03:50:46.523Z,21.34
2017-07-15T03:51:55.790Z,21.47
2017-07-15T03:53:04.431Z,21.49
2017-07-15T03:54:13.071Z,21.4
2017-07-15T03:55:22.023Z,21.46
2017-07-15T03:56:31.301Z,21.35
2017-07-15T03:57:40.262Z,21.46
2017-07-15T03:58:48.976Z,21.42
2017-07-15T03:59:57.618Z,21.43
2017-07-15T04:01:06.258Z,21.43
2017-07-15T04:02:15.228Z,21.47
2017-07-15T04:03:24.151Z,21.42
2017-07-15T04:04:32.789Z,21.44
2017-07-15T04:05:41.740Z,21.42
2017-07-15T04:06:50.694Z,21.47
2017-07-15T04:07:59.389Z,21.49
2017-07-15T04:09:08.360Z,21.62
2017-07-15T04:10:17.324Z,21.52
2017-07-15T04:11:26.901Z,21.49
2017-07-15T04:12:35.862Z,21.59
2017-07-15T04:13:45.137Z,21.54
2017-07-15T04:14:54.098Z,21.49
2017-07-15T04:16:03.050Z,21.53
2017-07-15T04:17:12.012Z,21.52
2017-07-15T04:18:21.302Z,21.44
2017-07-15T04:19:30.907Z,21.5
2017-07-15T04:20:39.862Z,21.53
2017-07-15T04:21:49.133Z,21.49
2017-07-15T04:22:58.078Z,21.47
2017-07-15T04:24:07.038Z,21.53
2017-07-15T04:25:16.323Z,21.58
2017-07-15T04:26:25.282Z,21.62
2017-07-15T04:27:33.920Z,21.59
2017-07-15T04:28:42.882Z,21.54
2017-07-15T04:29:51.840Z,21.53
2017-07-15T04:31:00.791Z,21.54
2017-07-15T04:32:10.061Z,21.53
2017-07-15T04:33:19.015Z,21.56
2017-07-15T04:34:28.278Z,21.59
2017-07-15T04:35:37.554Z,21.61
2017-07-15T04:36:46.544Z,21.65
2017-07-15T04:37:55.811Z,21.67
2017-07-15T04:39:04.786Z,21.68
2017-07-15T04:40:13.807Z,21.69
2017-07-15T04:41:22.455Z,21.68
2017-07-15T04:42:31.724Z,21.61
2017-07-15T04:43:40.685Z,21.69
2017-07-15T04:44:50.275Z,21.72
2017-07-15T04:45:59.292Z,21.77
2017-07-15T04:47:08.890Z,21.77
2017-07-15T04:48:18.475Z,21.8
2017-07-15T04:49:27.746Z,21.77
2017-07-15T04:50:36.707Z,21.82
2017-07-15T04:51:45.349Z,21.84
2017-07-15T04:52:53.991Z,21.8
2017-07-15T04:54:03.271Z,21.84
2017-07-15T04:55:12.535Z,21.8
2017-07-15T04:56:21.812Z,21.83
2017-07-15T04:57:31.396Z,21.82
2017-07-15T04:58:40.346Z,21.79
2017-07-15T04:59:49.929Z,21.71
2017-07-15T05:00:58.900Z,21.71
2017-07-15T05:02:07.573Z,21.68
2017-07-15T05:03:16.902Z,21.75
2017-07-15T05:04:25.854Z,21.65
2017-07-15T05:05:34.494Z,21.64
2017-07-15T05:06:43.508Z,21.61
2017-07-15T05:07:53.103Z,21.5
2017-07-15T05:09:02.368Z,21.54
2017-07-15T05:10:11.650Z,21.56
2017-07-15T05:11:20.610Z,21.53
2017-07-15T05:12:29.878Z,21.56
2017-07-15T05:13:39.158Z,21.52
2017-07-15T05:14:48.106Z,21.49
2017-07-15T05:15:57.685Z,21.42
2017-07-15T05:17:06.325Z,21.43
2017-07-15T05:18:15.591Z,21.5
2017-07-15T05:19:24.553Z,21.47
2017-07-15T05:20:33.501Z,21.34
2017-07-15T05:21:42.142Z,21.35
2017-07-15T05:22:51.757Z,21.43
2017-07-15T05:24:00.401Z,21.35
2017-07-15T05:25:09.671Z,21.35
2017-07-15T05:26:18.950Z,21.4
2017-07-15T05:27:27.898Z,21.37
2017-07-15T05:28:36.555Z,21.4
2017-07-15T05:29:46.149Z,21.35
2017-07-15T05:30:55.108Z,21.35
2017-07-15T05:32:04.065Z,21.37
2017-07-15T05:33:13.087Z,21.46
2017-07-15T05:34:22.672Z,21.37
2017-07-15T05:35:32.279Z,21.47
2017-07-15T05:36:40.916Z,21.47
2017-07-15T05:37:49.869Z,21.42
2017-07-15T05:38:58.842Z,21.37
2017-07-15T05:40:07.803Z,21.49
2017-07-15T05:41:17.068Z,21.56
2017-07-15T05:42:25.728Z,21.53
2017-07-15T05:43:35.005Z,21.61
2017-07-15T05:44:43.647Z,21.74
2017-07-15T05:45:52.288Z,21.71
2017-07-15T05:47:01.566Z,21.79
2017-07-15T05:48:10.518Z,21.86
2017-07-15T05:49:19.793Z,21.9
2017-07-15T05:50:28.434Z,21.9
2017-07-15T05:51:37.399Z,21.74
2017-07-15T05:52:46.671Z,21.84
2017-07-15T05:53:55.628Z,21.77
2017-07-15T05:55:04.888Z,21.86
2017-07-15T05:56:14.153Z,21.82
2017-07-15T05:57:23.163Z,21.91
2017-07-15T05:58:32.122Z,21.9
2017-07-15T05:59:40.760Z,21.94
2017-07-15T06:00:49.718Z,21.91
2017-07-15T06:01:59.013Z,22
2017-07-15T06:03:08.281Z,21.88
2017-07-15T06:04:16.920Z,22.02
2017-07-15T06:05:26.178Z,21.98
2017-07-15T06:06:35.177Z,21.83
2017-07-15T06:07:44.463Z,22
2017-07-15T06:08:53.417Z,21.96
2017-07-15T06:10:03.001Z,22.09
2017-07-15T06:11:12.273Z,22.18
2017-07-15T06:12:21.228Z,22.4
2017-07-15T06:13:30.498Z,22.55
2017-07-15T06:14:39.456Z,22.82
2017-07-15T06:15:49.048Z,23.04
2017-07-15T06:16:58.012Z,23.42
2017-07-15T06:18:06.654Z,23.8
2017-07-15T06:19:15.936Z,24.24
2017-07-15T06:20:24.913Z,24.4
2017-07-15T06:21:34.503Z,24.61
2017-07-15T06:22:43.780Z,24.62
2017-07-15T06:23:52.419Z,24.55
2017-07-15T06:25:01.379Z,24.62
2017-07-15T06:26:10.684Z,24.84
2017-07-15T06:27:20.661Z,24.95
2017-07-15T06:28:30.037Z,24.99
2017-07-15T06:29:39.313Z,24.93
2017-07-15T06:30:47.960Z,24.87
2017-07-15T06:31:57.361Z,24.8
2017-07-15T06:33:07.011Z,24.69
2017-07-15T06:34:15.974Z,24.55
2017-07-15T06:35:25.545Z,24.46
2017-07-15T06:36:35.022Z,24.46
2017-07-15T06:37:44.057Z,24.35
2017-07-15T06:38:54.046Z,24.31
2017-07-15T06:40:03.331Z,24.32
2017-07-15T06:41:12.065Z,24.27
2017-07-15T06:42:21.719Z,24.28
2017-07-15T06:43:30.697Z,24.39
2017-07-15T06:44:40.302Z,24.28
2017-07-15T06:45:50.217Z,24.31
2017-07-15T06:46:59.170Z,24.24
2017-07-15T06:48:08.124Z,24.21
2017-07-15T06:49:17.707Z,24.25
2017-07-15T06:50:26.975Z,24.24
2017-07-15T06:51:36.243Z,24.18
2017-07-15T06:52:44.888Z,24.13
2017-07-15T06:53:54.153Z,24.13
2017-07-15T06:55:02.806Z,24.05
2017-07-15T06:56:11.458Z,24.05
2017-07-15T06:57:20.746Z,24.03
2017-07-15T06:58:30.340Z,23.98
2017-07-15T06:59:38.986Z,23.9
2017-07-15T07:00:48.265Z,23.85
2017-07-15T07:01:57.544Z,23.91
2017-07-15T07:03:06.516Z,23.85
2017-07-15T07:04:15.489Z,23.72
2017-07-15T07:05:24.128Z,23.7
2017-07-15T07:06:33.093Z,23.79
2017-07-15T07:07:42.048Z,23.78
2017-07-15T07:08:51.710Z,23.76
2017-07-15T07:10:00.980Z,23.7
2017-07-15T07:11:09.642Z,23.72
2017-07-15T07:12:18.596Z,23.87
2017-07-15T07:13:27.866Z,23.98
2017-07-15T07:14:36.816Z,24.06
2017-07-15T07:15:46.407Z,24.1
2017-07-15T07:16:55.398Z,24.15
2017-07-15T07:18:04.674Z,24.15
2017-07-15T07:19:13.309Z,24.15
2017-07-15T07:20:22.282Z,24.27
2017-07-15T07:21:31.554Z,24.4
2017-07-15T07:22:40.197Z,24.43
2017-07-15T07:23:48.841Z,24.4
2017-07-15T07:24:57.494Z,24.46
2017-07-15T07:26:06.140Z,24.52
2017-07-15T07:27:14.786Z,24.55
2017-07-15T07:28:23.759Z,24.57
2017-07-15T07:29:32.716Z,24.67
2017-07-15T07:30:41.989Z,24.69
2017-07-15T07:31:50.978Z,24.78
2017-07-15T07:32:59.620Z,24.78
2017-07-15T07:34:09.231Z,24.84
2017-07-15T07:35:18.815Z,24.91
2017-07-15T07:36:28.142Z,25.23
2017-07-15T07:37:37.451Z,25.58
2017-07-15T07:38:46.106Z,26.1
2017-07-15T07:39:55.380Z,26.63
2017-07-15T07:41:04.813Z,26.85
2017-07-15T07:42:14.418Z,27.03
2017-07-15T07:43:23.683Z,27.12
2017-07-15T07:44:32.657Z,27.21
2017-07-15T07:45:41.633Z,27.29
2017-07-15T07:46:50.598Z,27.75
2017-07-15T07:47:59.238Z,28.25
2017-07-15T07:49:08.200Z,28.56
2017-07-15T07:50:16.931Z,28.67
2017-07-15T07:51:25.889Z,28.66
2017-07-15T07:52:35.161Z,28.52
2017-07-15T07:53:44.148Z,28.18
2017-07-15T07:54:53.185Z,27.93
2017-07-15T07:56:02.154Z,27.88
2017-07-15T07:57:11.446Z,27.88
2017-07-15T07:58:20.096Z,27.88
2017-07-15T07:59:29.386Z,27.66
2017-07-15T08:00:38.382Z,27.63
2017-07-15T08:01:47.029Z,27.55
2017-07-15T08:02:56.016Z,27.84
2017-07-15T08:04:04.991Z,28.18
2017-07-15T08:05:14.255Z,28.56
2017-07-15T08:06:22.903Z,28.95
2017-07-15T08:07:31.585Z,29.48
2017-07-15T08:08:40.560Z,29.95
2017-07-15T08:09:49.546Z,30.42
2017-07-15T08:10:58.831Z,30.83
2017-07-15T08:12:07.517Z,30.92
2017-07-15T08:13:16.794Z,31.28
2017-07-15T08:14:26.388Z,31.61
2017-07-15T08:15:35.370Z,31.7
2017-07-15T08:16:44.042Z,31.72
2017-07-15T08:17:53.321Z,31.63
2017-07-15T08:19:03.239Z,31.36
2017-07-15T08:20:12.195Z,31.17
2017-07-15T08:21:20.860Z,31.1
2017-07-15T08:22:30.148Z,31.48
2017-07-15T08:23:39.131Z,31.88
2017-07-15T08:24:48.400Z,32.3
2017-07-15T08:25:57.700Z,32.67
2017-07-15T08:27:06.345Z,33
2017-07-15T08:28:15.631Z,33.34
2017-07-15T08:29:24.611Z,33.63
2017-07-15T08:30:33.583Z,33.98
2017-07-15T08:31:42.576Z,34.05
2017-07-15T08:32:51.564Z,34.31
2017-07-15T08:34:00.844Z,34.52
2017-07-15T08:35:09.822Z,34.46
2017-07-15T08:36:19.102Z,34.46
2017-07-15T08:37:28.069Z,34.66
2017-07-15T08:38:37.343Z,34.84
2017-07-15T08:39:46.624Z,34.97
2017-07-15T08:40:55.903Z,35.15
2017-07-15T08:42:05.182Z,35.33
2017-07-15T08:43:14.474Z,35.47
2017-07-15T08:44:23.434Z,35.63
2017-07-15T08:45:32.405Z,35.81
2017-07-15T08:46:41.060Z,35.92
2017-07-15T08:47:49.740Z,35.85
2017-07-15T08:48:58.788Z,35.59
2017-07-15T08:50:07.805Z,35.26
2017-07-15T08:51:16.740Z,35.04
2017-07-15T08:52:26.337Z,34.81
2017-07-15T08:53:35.317Z,34.31
2017-07-15T08:54:44.288Z,33.91
2017-07-15T08:55:53.587Z,33.42
2017-07-15T08:57:03.224Z,33.15
2017-07-15T08:58:11.872Z,32.78
2017-07-15T08:59:21.468Z,32.48
2017-07-15T09:00:30.741Z,32.22
2017-07-15T09:01:40.015Z,31.81
2017-07-15T09:02:49.360Z,31.72
2017-07-15T09:03:58.674Z,31.29
2017-07-15T09:05:07.317Z,30.99
2017-07-15T09:06:16.619Z,30.51
2017-07-15T09:07:26.903Z,30.16
2017-07-15T09:08:35.914Z,29.78
2017-07-15T09:09:44.569Z,29.53
2017-07-15T09:10:53.866Z,29.11
2017-07-15T09:12:03.148Z,28.85
2017-07-15T09:13:12.436Z,28.54
2017-07-15T09:14:54.135Z,28
2017-07-15T09:16:03.450Z,27.82
2017-07-15T09:17:12.120Z,27.62
2017-07-15T09:18:20.917Z,27.44
2017-07-15T09:19:30.215Z,27.34
2017-07-15T09:20:39.196Z,27.31
2017-07-15T09:21:48.788Z,27.17
2017-07-15T09:22:57.779Z,27.07
2017-07-15T09:24:06.796Z,27.02
2017-07-15T09:25:15.771Z,26.97
2017-07-15T09:26:24.746Z,26.82
2017-07-15T09:27:33.710Z,26.89
2017-07-15T09:28:43.003Z,26.75
2017-07-15T09:29:52.283Z,26.82
2017-07-15T09:31:00.942Z,26.77
2017-07-15T09:32:09.578Z,26.62
2017-07-15T09:33:18.860Z,26.63
2017-07-15T09:34:27.515Z,26.51
2017-07-15T09:35:36.474Z,26.55
2017-07-15T09:36:45.796Z,26.5
2017-07-15T09:37:54.801Z,26.5
2017-07-15T09:39:04.085Z,26.35
2017-07-15T09:40:12.779Z,26.36
2017-07-15T09:41:22.212Z,26.28
2017-07-15T09:42:31.494Z,26.35
2017-07-15T09:43:40.465Z,26.25
2017-07-15T09:44:50.371Z,26.1
2017-07-15T09:45:59.656Z,26.12
2017-07-15T09:47:08.775Z,25.95
2017-07-15T09:48:17.419Z,25.95
2017-07-15T09:49:26.379Z,25.98
2017-07-15T09:50:35.339Z,26.02
2017-07-15T09:51:44.642Z,25.91
2017-07-15T09:52:53.397Z,25.99
2017-07-15T09:54:02.365Z,25.94
2017-07-15T09:55:11.646Z,25.91
2017-07-15T09:56:20.294Z,25.75
2017-07-15T09:57:29.615Z,25.79
2017-07-15T09:58:38.739Z,25.76
2017-07-15T09:59:47.729Z,25.79
2017-07-15T10:00:56.710Z,25.73
2017-07-15T10:02:05.357Z,25.82
2017-07-15T10:03:14.324Z,25.75
2017-07-15T10:04:23.947Z,25.7
2017-07-15T10:05:32.915Z,25.64
2017-07-15T10:06:41.576Z,25.61
2017-07-15T10:07:50.544Z,25.61
2017-07-15T10:08:59.531Z,25.62
2017-07-15T10:10:08.524Z,25.57
2017-07-15T10:11:17.495Z,25.52
2017-07-15T10:12:26.480Z,25.54
2017-07-15T10:13:35.454Z,25.46
2017-07-15T10:14:44.728Z,25.46
2017-07-15T10:15:54.024Z,25.54
2017-07-15T10:17:03.001Z,25.47
2017-07-15T10:18:12.618Z,25.45
2017-07-15T10:19:21.940Z,25.46
2017-07-15T10:20:30.605Z,25.46
2017-07-15T10:21:39.253Z,25.36
2017-07-15T10:22:48.541Z,25.4
2017-07-15T10:23:57.818Z,25.39
2017-07-15T10:25:06.530Z,25.36
2017-07-15T10:26:15.497Z,25.45
2017-07-15T10:27:24.614Z,25.42
2017-07-15T10:28:33.600Z,25.33
2017-07-15T10:29:42.267Z,25.28
2017-07-15T10:30:50.911Z,25.23
2017-07-15T10:32:00.204Z,25.21
2017-07-15T10:33:10.050Z,25.1
2017-07-15T10:34:18.709Z,25.05
2017-07-15T10:35:28.000Z,24.91
2017-07-15T10:36:37.290Z,24.76
2017-07-15T10:37:46.287Z,24.71
2017-07-15T10:38:55.893Z,24.58
2017-07-15T10:40:05.168Z,24.61
2017-07-15T10:41:13.825Z,24.45
2017-07-15T10:42:22.483Z,24.35
2017-07-15T10:43:31.120Z,24.28
2017-07-15T10:44:40.429Z,24.22
2017-07-15T10:45:49.464Z,24.27
2017-07-15T10:46:58.738Z,24.24
2017-07-15T10:48:07.711Z,24.2
2017-07-15T10:49:16.703Z,24.18
2017-07-15T10:50:26.457Z,24.08
2017-07-15T10:51:35.421Z,24.06
2017-07-15T10:52:44.082Z,24.05
2017-07-15T10:53:53.071Z,23.97
2017-07-15T10:55:02.350Z,23.91
2017-07-15T10:56:11.138Z,23.91
2017-07-15T10:57:20.107Z,23.9
2017-07-15T10:58:28.793Z,23.9
2017-07-15T10:59:37.502Z,23.88
2017-07-15T11:00:46.777Z,23.93
2017-07-15T11:01:55.952Z,23.9
2017-07-15T11:03:04.607Z,23.93
2017-07-15T11:04:13.905Z,23.93
2017-07-15T11:05:23.832Z,23.93
2017-07-15T11:06:32.789Z,23.87
2017-07-15T11:07:41.895Z,23.85
2017-07-15T11:08:50.847Z,23.88
2017-07-15T11:10:00.134Z,23.83
2017-07-15T11:11:09.087Z,23.78
2017-07-15T11:12:17.754Z,23.79
2017-07-15T11:13:26.719Z,23.87
2017-07-15T11:14:35.990Z,23.83
2017-07-15T11:15:44.630Z,23.84
2017-07-15T11:16:54.224Z,23.8
2017-07-15T11:18:04.128Z,23.83
2017-07-15T11:19:13.610Z,23.84
2017-07-15T11:20:22.569Z,23.79
2017-07-15T11:21:31.841Z,23.79
2017-07-15T11:22:40.800Z,23.8
2017-07-15T11:23:49.442Z,23.79
2017-07-15T11:24:58.614Z,23.72
2017-07-15T11:26:07.892Z,23.75
2017-07-15T11:27:16.853Z,23.75
2017-07-15T11:28:26.438Z,23.79
2017-07-15T11:29:35.121Z,23.7
2017-07-15T11:30:45.057Z,23.65
2017-07-15T11:31:54.355Z,23.58
2017-07-15T11:33:03.626Z,23.63
2017-07-15T11:34:12.267Z,23.6
2017-07-15T11:35:22.182Z,23.61
2017-07-15T11:36:31.608Z,23.57
2017-07-15T11:37:40.255Z,23.53
2017-07-15T11:38:49.536Z,23.5
2017-07-15T11:39:58.815Z,23.47
2017-07-15T11:41:07.780Z,23.51
2017-07-15T11:42:16.747Z,23.42
2017-07-15T11:43:25.386Z,23.46
2017-07-15T11:44:34.348Z,23.4
2017-07-15T11:45:43.314Z,23.36
2017-07-15T11:46:52.283Z,23.48
2017-07-15T11:48:01.089Z,23.46
2017-07-15T11:49:10.062Z,23.43
2017-07-15T11:50:19.036Z,23.42
2017-07-15T11:51:27.999Z,23.4
2017-07-15T11:52:36.655Z,23.46
2017-07-15T11:53:46.236Z,23.39
2017-07-15T11:54:55.220Z,23.42
2017-07-15T11:56:04.191Z,23.46
2017-07-15T11:57:13.511Z,23.46
2017-07-15T11:58:22.464Z,23.53
2017-07-15T11:59:31.631Z,23.48
2017-07-15T12:00:40.889Z,23.47
2017-07-15T12:01:49.534Z,23.48
2017-07-15T12:02:58.807Z,23.48
2017-07-15T12:04:07.449Z,23.53
2017-07-15T12:05:16.161Z,23.54
2017-07-15T12:06:25.149Z,23.46
2017-07-15T12:07:33.786Z,23.53
2017-07-15T12:08:42.750Z,23.47
2017-07-15T12:09:52.027Z,23.47
2017-07-15T12:11:01.145Z,23.51
2017-07-15T12:12:10.098Z,23.4
2017-07-15T12:13:19.691Z,23.48
2017-07-15T12:14:28.650Z,23.42
2017-07-15T12:15:37.295Z,23.48
2017-07-15T12:16:46.310Z,23.43
2017-07-15T12:17:55.266Z,23.47
2017-07-15T12:19:04.559Z,23.43
2017-07-15T12:20:13.200Z,23.47
2017-07-15T12:21:21.851Z,23.39
2017-07-15T12:22:30.901Z,23.43
2017-07-15T12:23:39.869Z,23.48
2017-07-15T12:24:49.137Z,23.53
2017-07-15T12:25:58.112Z,23.5
2017-07-15T12:27:07.394Z,23.5
2017-07-15T12:28:16.862Z,23.51
2017-07-15T12:29:25.515Z,23.6
2017-07-15T12:30:34.795Z,23.61
2017-07-15T12:31:44.395Z,23.63
2017-07-15T12:32:53.361Z,23.7
2017-07-15T12:34:02.480Z,23.61
2017-07-15T12:35:11.122Z,23.63
2017-07-15T12:36:20.114Z,23.72
2017-07-15T12:37:28.763Z,23.69
2017-07-15T12:38:38.043Z,23.76
2017-07-15T12:39:47.646Z,23.66
2017-07-15T12:40:56.600Z,23.66
2017-07-15T12:42:05.870Z,23.7
2017-07-15T12:43:14.522Z,23.76
2017-07-15T12:44:23.797Z,23.73
2017-07-15T12:45:33.106Z,23.73
2017-07-15T12:46:41.762Z,23.69
2017-07-15T12:47:50.415Z,23.72
2017-07-15T12:48:59.080Z,23.65
2017-07-15T12:50:08.380Z,23.72
2017-07-15T12:51:17.883Z,23.65
2017-07-15T12:52:27.161Z,23.75
2017-07-15T12:53:36.745Z,23.79
2017-07-15T12:54:46.020Z,23.75
2017-07-15T12:55:54.670Z,23.76
2017-07-15T12:57:03.660Z,23.83
2017-07-15T12:58:12.628Z,23.75
2017-07-15T12:59:21.588Z,23.76
2017-07-15T13:00:30.563Z,23.88
2017-07-15T13:01:39.831Z,23.9
2017-07-15T13:02:48.782Z,23.87
2017-07-15T13:03:58.675Z,23.79
2017-07-15T13:05:07.383Z,23.91
2017-07-15T13:06:16.649Z,23.88
2017-07-15T13:07:25.924Z,23.9
2017-07-15T13:08:34.916Z,23.93
2017-07-15T13:09:44.209Z,23.97
2017-07-15T13:10:52.860Z,23.95
2017-07-15T13:12:02.152Z,23.93
2017-07-15T13:13:11.454Z,23.91
2017-07-15T13:14:20.568Z,23.9
2017-07-15T13:15:29.852Z,24
2017-07-15T13:16:38.820Z,23.95
2017-07-15T13:17:47.788Z,24.03
2017-07-15T13:18:56.771Z,24.06
2017-07-15T13:20:06.852Z,24.03
2017-07-15T13:21:15.839Z,24.05
2017-07-15T13:22:24.795Z,24
2017-07-15T13:23:33.766Z,24.08
2017-07-15T13:24:42.738Z,24.09
2017-07-15T13:25:52.078Z,24.08
2017-07-15T13:27:01.041Z,24.02
2017-07-15T13:28:10.330Z,23.98
2017-07-15T13:29:19.606Z,24.06
2017-07-15T13:30:28.886Z,24.1
2017-07-15T13:31:37.893Z,24.03
2017-07-15T13:32:46.861Z,24.06
2017-07-15T13:33:55.852Z,24.09
2017-07-15T13:35:04.507Z,23.95
2017-07-15T13:36:13.780Z,24.05
2017-07-15T13:37:23.210Z,24.05
2017-07-15T13:38:32.180Z,24.09
2017-07-15T13:39:41.458Z,24.06
2017-07-15T13:40:50.446Z,24.09
2017-07-15T13:42:00.058Z,24.05
2017-07-15T13:43:09.075Z,23.93
2017-07-15T13:44:17.731Z,24.1
2017-07-15T13:45:26.398Z,24.05
2017-07-15T13:46:35.404Z,24.02
2017-07-15T13:47:44.367Z,24.06
2017-07-15T13:48:53.801Z,24.08
2017-07-15T13:50:03.075Z,23.97
2017-07-15T13:51:12.142Z,24.05
2017-07-15T13:52:20.789Z,24.03
2017-07-15T13:53:29.749Z,24.09
2017-07-15T13:54:38.859Z,24.06
2017-07-15T13:55:47.524Z,24.08
2017-07-15T13:56:56.808Z,24.21
2017-07-15T13:58:05.462Z,24.18
2017-07-15T13:59:14.102Z,24.13
2017-07-15T14:00:23.111Z,23.95
2017-07-15T14:01:32.408Z,24.03
2017-07-15T14:02:41.045Z,23.95
2017-07-15T14:03:50.327Z,23.91
2017-07-15T14:04:59.299Z,23.91
2017-07-15T14:06:08.412Z,24
2017-07-15T14:07:17.394Z,24.08
2017-07-15T14:08:26.111Z,23.97
2017-07-15T14:09:35.097Z,23.98
2017-07-15T14:10:43.742Z,24.1
2017-07-15T14:11:53.404Z,24.13
2017-07-15T14:13:02.686Z,24.08
2017-07-15T14:14:11.654Z,24.2
2017-07-15T14:15:20.311Z,24.16
2017-07-15T14:16:29.606Z,24.22
2017-07-15T14:17:39.273Z,24.31
2017-07-15T14:18:48.235Z,24.25
2017-07-15T14:19:57.234Z,24.28
2017-07-15T14:21:05.919Z,24.32
2017-07-15T14:22:14.566Z,24.28
2017-07-15T14:23:23.214Z,24.25
2017-07-15T14:24:31.861Z,24.3
2017-07-15T14:25:40.511Z,24.3
2017-07-15T14:26:49.167Z,24.25
2017-07-15T14:27:58.137Z,24.3
2017-07-15T14:29:07.103Z,24.28
2017-07-15T14:30:15.762Z,24.32
2017-07-15T14:31:25.041Z,24.39
2017-07-15T14:32:33.687Z,24.35
2017-07-15T14:33:42.655Z,24.46
2017-07-15T14:34:51.613Z,24.34
2017-07-15T14:36:00.249Z,24.35
2017-07-15T14:37:09.214Z,24.31
2017-07-15T14:38:18.190Z,24.47
2017-07-15T14:39:26.885Z,24.37
2017-07-15T14:40:35.995Z,24.35
2017-07-15T14:41:44.634Z,24.46
2017-07-15T14:42:54.219Z,24.43
2017-07-15T14:44:02.864Z,24.31
2017-07-15T14:45:11.505Z,24.31
2017-07-15T14:46:20.873Z,24.39
2017-07-15T14:47:29.512Z,24.43
2017-07-15T14:48:38.777Z,24.39
2017-07-15T14:49:47.749Z,24.31
2017-07-15T14:50:57.034Z,24.32
2017-07-15T14:52:06.462Z,24.42
2017-07-15T14:53:15.103Z,24.31
2017-07-15T14:54:24.700Z,24.34
2017-07-15T14:55:33.698Z,24.35